sensor_id;sensor_type;location;lat;lon;timestamp;pressure;altitude;pressure_sealevel;temperature;humidity
6150;BME280;3106;42.670;23.318;2023-02-13T00:00:47;96131.47;;;0.10;100.00
6150;BME280;3106;42.670;23.318;2023-02-13T00:03:16;96126.56;;;0.14;100.00
6150;BME280;3106;42.670;23.318;2023-02-13T00:05:43;96136.25;;;0.13;100.00
6150;BME280;3106;42.670;23.318;2023-02-13T00:08:10;96139.44;;;0.15;100.00
6150;BME280;3106;42.670;23.318;2023-02-13T00:10:37;96129.50;;;0.17;100.00
6150;BME280;3106;42.670;23.318;2023-02-13T00:13:03;96134.69;;;0.29;100.00
6150;BME280;3106;42.670;23.318;2023-02-13T00:15:32;96136.53;;;0.28;100.00
6150;BME280;3106;42.670;23.318;2023-02-13T00:17:58;96132.97;;;0.34;100.00
6150;BME280;3106;42.670;23.318;2023-02-13T00:20:27;96133.31;;;0.38;100.00
6150;BME280;3106;42.670;23.318;2023-02-13T00:22:53;96132.09;;;0.45;100.00
6150;BME280;3106;42.670;23.318;2023-02-13T00:25:20;96135.91;;;0.54;100.00
6150;BME280;3106;42.670;23.318;2023-02-13T00:27:48;96138.34;;;0.56;100.00
6150;BME280;3106;42.670;23.318;2023-02-13T00:30:16;96146.69;;;0.53;100.00
6150;BME280;3106;42.670;23.318;2023-02-13T00:32:43;96137.22;;;0.52;100.00
6150;BME280;3106;42.670;23.318;2023-02-13T00:35:09;96137.13;;;0.47;100.00
6150;BME280;3106;42.670;23.318;2023-02-13T00:37:38;96148.44;;;0.47;100.00
6150;BME280;3106;42.670;23.318;2023-02-13T00:40:05;96146.38;;;0.49;100.00
6150;BME280;3106;42.670;23.318;2023-02-13T00:42:32;96153.38;;;0.44;100.00
6150;BME280;3106;42.670;23.318;2023-02-13T00:44:59;96136.09;;;0.48;100.00
6150;BME280;3106;42.670;23.318;2023-02-13T00:47:26;96145.59;;;0.49;100.00
6150;BME280;3106;42.670;23.318;2023-02-13T00:49:53;96143.03;;;0.54;100.00
6150;BME280;3106;42.670;23.318;2023-02-13T00:52:19;96141.09;;;0.49;100.00
6150;BME280;3106;42.670;23.318;2023-02-13T00:54:48;96136.41;;;0.51;100.00
6150;BME280;3106;42.670;23.318;2023-02-13T01:00:20;96080.31;;;0.01;100.00
6150;BME280;3106;42.670;23.318;2023-02-13T01:02:47;96120.69;;;0.23;100.00
6150;BME280;3106;42.670;23.318;2023-02-13T01:05:14;96147.97;;;0.50;100.00
6150;BME280;3106;42.670;23.318;2023-02-13T01:07:41;96143.56;;;0.39;100.00
6150;BME280;3106;42.670;23.318;2023-02-13T01:10:10;96155.97;;;0.55;100.00
6150;BME280;3106;42.670;23.318;2023-02-13T01:12:36;96111.97;;;0.23;100.00
6150;BME280;3106;42.670;23.318;2023-02-13T01:15:04;96122.78;;;0.38;100.00
6150;BME280;3106;42.670;23.318;2023-02-13T01:17:31;96138.81;;;0.53;100.00
6150;BME280;3106;42.670;23.318;2023-02-13T01:19:58;96118.94;;;0.45;100.00
6150;BME280;3106;42.670;23.318;2023-02-13T01:22:25;96104.81;;;0.35;100.00
6150;BME280;3106;42.670;23.318;2023-02-13T01:24:52;96161.22;;;0.72;100.00
6150;BME280;3106;42.670;23.318;2023-02-13T01:27:21;96135.47;;;0.57;100.00
6150;BME280;3106;42.670;23.318;2023-02-13T01:29:48;96166.34;;;0.78;100.00
6150;BME280;3106;42.670;23.318;2023-02-13T01:32:15;96107.31;;;0.41;100.00
6150;BME280;3106;42.670;23.318;2023-02-13T01:34:42;96127.16;;;0.49;100.00
6150;BME280;3106;42.670;23.318;2023-02-13T01:37:09;96128.44;;;0.63;100.00
6150;BME280;3106;42.670;23.318;2023-02-13T01:39:35;96101.75;;;0.38;100.00
6150;BME280;3106;42.670;23.318;2023-02-13T01:42:03;96134.25;;;0.65;100.00
6150;BME280;3106;42.670;23.318;2023-02-13T01:44:49;96082.75;;;0.36;100.00
6150;BME280;3106;42.670;23.318;2023-02-13T01:47:25;96138.25;;;0.67;100.00
6150;BME280;3106;42.670;23.318;2023-02-13T01:50:00;96069.22;;;0.27;100.00
6150;BME280;3106;42.670;23.318;2023-02-13T01:52:29;96142.16;;;0.65;100.00
6150;BME280;3106;42.670;23.318;2023-02-13T01:54:57;96174.56;;;0.82;100.00
6150;BME280;3106;42.670;23.318;2023-02-13T01:57:25;96136.13;;;0.64;100.00
6150;BME280;3106;42.670;23.318;2023-02-13T01:59:58;96154.91;;;0.73;100.00
6150;BME280;3106;42.670;23.318;2023-02-13T02:02:30;96109.06;;;0.52;100.00
6150;BME280;3106;42.670;23.318;2023-02-13T02:05:00;96177.44;;;0.97;100.00
6150;BME280;3106;42.670;23.318;2023-02-13T02:07:29;96127.00;;;0.72;100.00
6150;BME280;3106;42.670;23.318;2023-02-13T02:10:00;96184.06;;;0.99;100.00
6150;BME280;3106;42.670;23.318;2023-02-13T02:12:33;96168.19;;;0.94;100.00
6150;BME280;3106;42.670;23.318;2023-02-13T02:15:05;96057.50;;;0.18;100.00
6150;BME280;3106;42.670;23.318;2023-02-13T02:17:32;96170.41;;;1.02;100.00
6150;BME280;3106;42.670;23.318;2023-02-13T02:20:07;96115.00;;;0.76;100.00
6150;BME280;3106;42.670;23.318;2023-02-13T02:32:18;96076.78;;;0.40;100.00
6150;BME280;3106;42.670;23.318;2023-02-13T02:35:15;96159.88;;;1.02;100.00
6150;BME280;3106;42.670;23.318;2023-02-13T02:38:00;96126.16;;;0.66;100.00
6150;BME280;3106;42.670;23.318;2023-02-13T02:40:35;96161.31;;;0.77;100.00
6150;BME280;3106;42.670;23.318;2023-02-13T02:43:13;96157.25;;;0.69;100.00
6150;BME280;3106;42.670;23.318;2023-02-13T02:45:47;96147.47;;;0.53;100.00
6150;BME280;3106;42.670;23.318;2023-02-13T02:48:23;96182.75;;;0.69;100.00
6150;BME280;3106;42.670;23.318;2023-02-13T02:51:17;96170.59;;;0.51;100.00
6150;BME280;3106;42.670;23.318;2023-02-13T02:53:52;96162.94;;;0.33;100.00
6150;BME280;3106;42.670;23.318;2023-02-13T02:56:28;96155.03;;;0.33;100.00
6150;BME280;3106;42.670;23.318;2023-02-13T02:59:01;96161.41;;;0.37;100.00
6150;BME280;3106;42.670;23.318;2023-02-13T03:01:53;96210.63;;;0.53;100.00
6150;BME280;3106;42.670;23.318;2023-02-13T03:04:45;96184.16;;;0.43;100.00
6150;BME280;3106;42.670;23.318;2023-02-13T03:07:31;96201.25;;;0.57;100.00
6150;BME280;3106;42.670;23.318;2023-02-13T03:10:00;96141.41;;;0.36;100.00
6150;BME280;3106;42.670;23.318;2023-02-13T03:12:49;96124.25;;;0.34;100.00
6150;BME280;3106;42.670;23.318;2023-02-13T03:15:37;96180.53;;;0.77;100.00
6150;BME280;3106;42.670;23.318;2023-02-13T03:18:25;96151.00;;;0.59;100.00
6150;BME280;3106;42.670;23.318;2023-02-13T03:21:16;96142.69;;;0.50;100.00
6150;BME280;3106;42.670;23.318;2023-02-13T03:24:06;96146.56;;;0.59;100.00
6150;BME280;3106;42.670;23.318;2023-02-13T03:26:39;96158.38;;;0.73;100.00
6150;BME280;3106;42.670;23.318;2023-02-13T03:29:20;96144.47;;;0.61;100.00
6150;BME280;3106;42.670;23.318;2023-02-13T03:32:10;96167.53;;;0.71;100.00
6150;BME280;3106;42.670;23.318;2023-02-13T03:34:49;96132.19;;;0.50;100.00
6150;BME280;3106;42.670;23.318;2023-02-13T03:37:40;96180.31;;;0.79;100.00
6150;BME280;3106;42.670;23.318;2023-02-13T03:40:27;96159.78;;;0.64;100.00
6150;BME280;3106;42.670;23.318;2023-02-13T03:42:59;96181.16;;;0.68;100.00
6150;BME280;3106;42.670;23.318;2023-02-13T03:45:32;96093.66;;;0.28;100.00
6150;BME280;3106;42.670;23.318;2023-02-13T03:48:24;96194.53;;;0.94;100.00
6150;BME280;3106;42.670;23.318;2023-02-13T03:51:13;96205.53;;;0.91;100.00
6150;BME280;3106;42.670;23.318;2023-02-13T03:53:45;96195.69;;;0.87;100.00
6150;BME280;3106;42.670;23.318;2023-02-13T03:56:15;96157.09;;;0.59;100.00
6150;BME280;3106;42.670;23.318;2023-02-13T03:59:02;96169.97;;;0.61;100.00
6150;BME280;3106;42.670;23.318;2023-02-13T04:01:44;96138.25;;;0.51;100.00
6150;BME280;3106;42.670;23.318;2023-02-13T04:04:19;96105.78;;;0.29;100.00
6150;BME280;3106;42.670;23.318;2023-02-13T04:06:51;96190.09;;;0.83;100.00
6150;BME280;3106;42.670;23.318;2023-02-13T04:09:22;96151.91;;;0.64;100.00
6150;BME280;3106;42.670;23.318;2023-02-13T04:11:55;96112.97;;;0.33;100.00
6150;BME280;3106;42.670;23.318;2023-02-13T04:14:29;96158.75;;;0.65;100.00
6150;BME280;3106;42.670;23.318;2023-02-13T04:17:03;96184.81;;;0.67;100.00
6150;BME280;3106;42.670;23.318;2023-02-13T04:19:31;96140.00;;;0.45;100.00
6150;BME280;3106;42.670;23.318;2023-02-13T04:22:01;96195.06;;;0.80;100.00
6150;BME280;3106;42.670;23.318;2023-02-13T04:24:29;96167.88;;;0.46;100.00
6150;BME280;3106;42.670;23.318;2023-02-13T04:26:57;96163.59;;;0.57;100.00
6150;BME280;3106;42.670;23.318;2023-02-13T04:29:25;96213.09;;;0.88;100.00
6150;BME280;3106;42.670;23.318;2023-02-13T04:31:52;96202.56;;;0.88;100.00
6150;BME280;3106;42.670;23.318;2023-02-13T04:34:19;96204.94;;;0.89;100.00
6150;BME280;3106;42.670;23.318;2023-02-13T04:36:46;96128.44;;;0.46;100.00
6150;BME280;3106;42.670;23.318;2023-02-13T04:39:13;96175.03;;;0.79;100.00
6150;BME280;3106;42.670;23.318;2023-02-13T04:41:42;96146.31;;;0.77;100.00
6150;BME280;3106;42.670;23.318;2023-02-13T04:44:09;96207.09;;;1.09;100.00
6150;BME280;3106;42.670;23.318;2023-02-13T04:46:36;96200.09;;;1.14;100.00
6150;BME280;3106;42.670;23.318;2023-02-13T04:49:03;96167.78;;;1.02;100.00
6150;BME280;3106;42.670;23.318;2023-02-13T04:51:30;96205.69;;;1.18;100.00
6150;BME280;3106;42.670;23.318;2023-02-13T04:53:57;96197.59;;;1.24;100.00
6150;BME280;3106;42.670;23.318;2023-02-13T04:56:23;96202.56;;;1.21;100.00
6150;BME280;3106;42.670;23.318;2023-02-13T04:58:53;96209.03;;;1.13;100.00
6150;BME280;3106;42.670;23.318;2023-02-13T05:01:20;96203.53;;;0.98;100.00
6150;BME280;3106;42.670;23.318;2023-02-13T05:03:47;96215.31;;;0.96;100.00
6150;BME280;3106;42.670;23.318;2023-02-13T05:06:14;96212.53;;;0.86;100.00
6150;BME280;3106;42.670;23.318;2023-02-13T05:08:41;96206.06;;;0.77;100.00
6150;BME280;3106;42.670;23.318;2023-02-13T05:11:09;96217.38;;;0.77;100.00
6150;BME280;3106;42.670;23.318;2023-02-13T05:13:35;96217.72;;;0.81;100.00
6150;BME280;3106;42.670;23.318;2023-02-13T05:16:04;96220.09;;;0.82;100.00
6150;BME280;3106;42.670;23.318;2023-02-13T05:18:31;96180.44;;;0.56;100.00
6150;BME280;3106;42.670;23.318;2023-02-13T05:21:04;96183.88;;;0.56;100.00
6150;BME280;3106;42.670;23.318;2023-02-13T05:23:48;96175.69;;;0.41;100.00
6150;BME280;3106;42.670;23.318;2023-02-13T05:26:16;96239.72;;;0.75;100.00
6150;BME280;3106;42.670;23.318;2023-02-13T05:28:43;96175.13;;;0.39;100.00
6150;BME280;3106;42.670;23.318;2023-02-13T05:31:31;96203.47;;;0.49;100.00
6150;BME280;3106;42.670;23.318;2023-02-13T06:44:10;96266.69;;;0.82;100.00
6150;BME280;3106;42.670;23.318;2023-02-13T06:46:37;96277.13;;;0.77;100.00
6150;BME280;3106;42.670;23.318;2023-02-13T06:49:04;96271.69;;;0.83;100.00
6150;BME280;3106;42.670;23.318;2023-02-13T06:51:30;96274.81;;;0.80;100.00
6150;BME280;3106;42.670;23.318;2023-02-13T06:53:57;96279.25;;;0.91;100.00
6150;BME280;3106;42.670;23.318;2023-02-13T06:56:24;96280.38;;;0.95;100.00
6150;BME280;3106;42.670;23.318;2023-02-13T06:58:51;96275.75;;;1.02;100.00
6150;BME280;3106;42.670;23.318;2023-02-13T07:01:19;96274.09;;;1.13;100.00
6150;BME280;3106;42.670;23.318;2023-02-13T07:03:46;96263.56;;;1.29;100.00
6150;BME280;3106;42.670;23.318;2023-02-13T07:08:42;96269.03;;;1.77;100.00
6150;BME280;3106;42.670;23.318;2023-02-13T07:11:16;96269.25;;;1.75;99.98
6150;BME280;3106;42.670;23.318;2023-02-13T07:13:43;96271.44;;;2.00;98.29
6150;BME280;3106;42.670;23.318;2023-02-13T07:16:09;96271.72;;;2.20;98.11
6150;BME280;3106;42.670;23.318;2023-02-13T07:18:43;96275.53;;;2.29;98.04
6150;BME280;3106;42.670;23.318;2023-02-13T07:21:09;96286.44;;;2.16;96.85
6150;BME280;3106;42.670;23.318;2023-02-13T07:23:36;96277.84;;;2.04;96.78
6150;BME280;3106;42.670;23.318;2023-02-13T07:26:04;96275.00;;;1.89;97.48
6150;BME280;3106;42.670;23.318;2023-02-13T07:28:34;96283.69;;;2.06;97.94
6150;BME280;3106;42.670;23.318;2023-02-13T07:31:03;96288.22;;;2.10;97.89
6150;BME280;3106;42.670;23.318;2023-02-13T07:33:31;96284.78;;;2.10;96.89
6150;BME280;3106;42.670;23.318;2023-02-13T07:35:59;96288.97;;;2.06;97.11
6150;BME280;3106;42.670;23.318;2023-02-13T07:38:28;96281.38;;;1.93;97.45
6150;BME280;3106;42.670;23.318;2023-02-13T07:40:57;96281.53;;;2.03;97.34
6150;BME280;3106;42.670;23.318;2023-02-13T07:43:24;96283.63;;;2.01;97.85
6150;BME280;3106;42.670;23.318;2023-02-13T07:45:51;96286.06;;;2.07;98.71
6150;BME280;3106;42.670;23.318;2023-02-13T07:48:20;96286.84;;;2.24;97.17
6150;BME280;3106;42.670;23.318;2023-02-13T07:53:37;96290.38;;;2.35;96.51
6150;BME280;3106;42.670;23.318;2023-02-13T07:56:05;96287.31;;;2.43;95.74
6150;BME280;3106;42.670;23.318;2023-02-13T07:58:32;96281.06;;;2.49;96.39
6150;BME280;3106;42.670;23.318;2023-02-13T08:01:05;96267.66;;;2.34;95.39
6150;BME280;3106;42.670;23.318;2023-02-13T08:03:31;96290.81;;;2.48;95.87
6150;BME280;3106;42.670;23.318;2023-02-13T08:05:58;96287.88;;;2.66;94.67
6150;BME280;3106;42.670;23.318;2023-02-13T08:08:28;96285.97;;;2.88;95.03
6150;BME280;3106;42.670;23.318;2023-02-13T08:11:04;96276.88;;;2.74;94.29
6150;BME280;3106;42.670;23.318;2023-02-13T08:13:49;96279.00;;;2.77;94.09
6150;BME280;3106;42.670;23.318;2023-02-13T08:16:18;96277.81;;;2.63;94.51
6150;BME280;3106;42.670;23.318;2023-02-13T08:18:44;96275.72;;;2.44;94.85
6150;BME280;3106;42.670;23.318;2023-02-13T08:21:11;96273.50;;;2.57;95.08
6150;BME280;3106;42.670;23.318;2023-02-13T08:23:39;96276.88;;;2.53;94.80
6150;BME280;3106;42.670;23.318;2023-02-13T08:26:08;96280.53;;;2.73;94.34
6150;BME280;3106;42.670;23.318;2023-02-13T08:28:35;96274.00;;;2.76;94.27
6150;BME280;3106;42.670;23.318;2023-02-13T08:31:08;96283.75;;;3.01;94.17
6150;BME280;3106;42.670;23.318;2023-02-13T08:33:35;96282.94;;;2.75;94.61
6150;BME280;3106;42.670;23.318;2023-02-13T08:38:31;96265.72;;;2.46;95.28
6150;BME280;3106;42.670;23.318;2023-02-13T08:40:58;96250.88;;;2.40;95.68
6150;BME280;3106;42.670;23.318;2023-02-13T08:43:26;96274.97;;;2.48;95.78
6150;BME280;3106;42.670;23.318;2023-02-13T08:45:57;96285.53;;;2.48;95.60
6150;BME280;3106;42.670;23.318;2023-02-13T08:48:24;96270.56;;;2.32;96.58
6150;BME280;3106;42.670;23.318;2023-02-13T08:50:51;96287.69;;;2.51;95.51
6150;BME280;3106;42.670;23.318;2023-02-13T08:53:17;96277.88;;;2.47;95.27
6150;BME280;3106;42.670;23.318;2023-02-13T08:55:51;96288.03;;;2.60;94.46
6150;BME280;3106;42.670;23.318;2023-02-13T08:58:17;96292.59;;;2.43;95.94
6150;BME280;3106;42.670;23.318;2023-02-13T09:00:46;96296.41;;;2.52;95.96
6150;BME280;3106;42.670;23.318;2023-02-13T09:03:13;96288.63;;;2.88;94.46
6150;BME280;3106;42.670;23.318;2023-02-13T09:05:39;96288.13;;;3.17;93.64
6150;BME280;3106;42.670;23.318;2023-02-13T09:08:09;96285.72;;;3.16;93.18
6150;BME280;3106;42.670;23.318;2023-02-13T09:10:38;96292.06;;;3.15;92.55
6150;BME280;3106;42.670;23.318;2023-02-13T09:13:05;96286.09;;;3.24;92.83
6150;BME280;3106;42.670;23.318;2023-02-13T09:15:32;96289.50;;;3.51;92.51
6150;BME280;3106;42.670;23.318;2023-02-13T09:18:01;96286.72;;;3.68;91.11
6150;BME280;3106;42.670;23.318;2023-02-13T09:20:28;96285.28;;;3.92;90.89
6150;BME280;3106;42.670;23.318;2023-02-13T09:22:54;96269.69;;;3.90;89.52
6150;BME280;3106;42.670;23.318;2023-02-13T09:25:22;96272.69;;;4.04;89.03
6150;BME280;3106;42.670;23.318;2023-02-13T09:27:49;96277.69;;;4.00;88.03
6150;BME280;3106;42.670;23.318;2023-02-13T09:30:16;96271.75;;;3.83;88.90
6150;BME280;3106;42.670;23.318;2023-02-13T09:32:47;96260.97;;;3.95;88.28
6150;BME280;3106;42.670;23.318;2023-02-13T09:35:16;96264.41;;;3.90;88.81
6150;BME280;3106;42.670;23.318;2023-02-13T09:37:44;96266.09;;;4.11;88.55
6150;BME280;3106;42.670;23.318;2023-02-13T09:40:17;96267.25;;;4.25;86.97
6150;BME280;3106;42.670;23.318;2023-02-13T09:42:46;96245.81;;;4.37;86.37
6150;BME280;3106;42.670;23.318;2023-02-13T09:45:16;96257.66;;;4.80;84.25
6150;BME280;3106;42.670;23.318;2023-02-13T09:47:46;96253.75;;;5.13;83.48
6150;BME280;3106;42.670;23.318;2023-02-13T09:50:20;96248.44;;;5.08;82.73
6150;BME280;3106;42.670;23.318;2023-02-13T09:52:50;96247.31;;;4.84;83.27
6150;BME280;3106;42.670;23.318;2023-02-13T09:55:21;96257.13;;;4.78;84.15
6150;BME280;3106;42.670;23.318;2023-02-13T09:57:54;96246.16;;;4.55;85.24
6150;BME280;3106;42.670;23.318;2023-02-13T10:00:25;96244.31;;;4.50;85.70
6150;BME280;3106;42.670;23.318;2023-02-13T10:06:06;96240.56;;;4.42;85.55
6150;BME280;3106;42.670;23.318;2023-02-13T10:08:47;96228.97;;;4.52;85.64
6150;BME280;3106;42.670;23.318;2023-02-13T10:11:34;96226.63;;;4.71;84.88
6150;BME280;3106;42.670;23.318;2023-02-13T10:14:11;96221.94;;;5.13;82.78
6150;BME280;3106;42.670;23.318;2023-02-13T10:16:44;96223.00;;;5.32;82.01
6150;BME280;3106;42.670;23.318;2023-02-13T10:19:19;96221.16;;;5.27;81.01
6150;BME280;3106;42.670;23.318;2023-02-13T10:21:53;96202.06;;;5.10;81.49
6150;BME280;3106;42.670;23.318;2023-02-13T10:24:30;96203.91;;;5.15;82.11
6150;BME280;3106;42.670;23.318;2023-02-13T10:27:01;96214.22;;;5.01;82.45
6150;BME280;3106;42.670;23.318;2023-02-13T10:29:37;96203.91;;;5.20;82.66
6150;BME280;3106;42.670;23.318;2023-02-13T10:32:27;96194.63;;;5.47;81.63
6150;BME280;3106;42.670;23.318;2023-02-13T10:34:58;96191.16;;;5.72;80.39
6150;BME280;3106;42.670;23.318;2023-02-13T10:37:28;96194.06;;;5.85;78.80
6150;BME280;3106;42.670;23.318;2023-02-13T10:39:55;96187.66;;;6.01;78.33
6150;BME280;3106;42.670;23.318;2023-02-13T10:42:26;96186.78;;;6.20;77.51
6150;BME280;3106;42.670;23.318;2023-02-13T10:45:19;96180.22;;;6.03;77.61
6150;BME280;3106;42.670;23.318;2023-02-13T10:48:07;96168.34;;;5.56;79.42
6150;BME280;3106;42.670;23.318;2023-02-13T10:50:42;96164.69;;;5.32;80.68
6150;BME280;3106;42.670;23.318;2023-02-13T10:53:18;96168.91;;;5.33;81.16
6150;BME280;3106;42.670;23.318;2023-02-13T10:58:56;96155.59;;;5.68;78.66
6150;BME280;3106;42.670;23.318;2023-02-13T11:01:32;96157.75;;;5.66;79.27
6150;BME280;3106;42.670;23.318;2023-02-13T11:04:07;96153.47;;;5.85;78.97
6150;BME280;3106;42.670;23.318;2023-02-13T11:06:38;96150.97;;;6.08;77.13
6150;BME280;3106;42.670;23.318;2023-02-13T11:09:08;96151.06;;;5.88;77.11
6150;BME280;3106;42.670;23.318;2023-02-13T11:11:40;96147.91;;;5.66;77.20
6150;BME280;3106;42.670;23.318;2023-02-13T11:14:11;96146.59;;;5.59;77.82
6150;BME280;3106;42.670;23.318;2023-02-13T11:16:40;96136.50;;;5.66;78.63
6150;BME280;3106;42.670;23.318;2023-02-13T11:19:16;96133.84;;;5.71;78.66
6150;BME280;3106;42.670;23.318;2023-02-13T11:21:46;96126.38;;;5.88;77.38
6150;BME280;3106;42.670;23.318;2023-02-13T11:24:21;96118.16;;;5.89;77.09
6150;BME280;3106;42.670;23.318;2023-02-13T11:26:51;96120.22;;;6.02;77.05
6150;BME280;3106;42.670;23.318;2023-02-13T11:29:22;96115.19;;;6.05;77.47
6150;BME280;3106;42.670;23.318;2023-02-13T11:32:01;96060.53;;;5.94;76.62
6150;BME280;3106;42.670;23.318;2023-02-13T11:37:23;96094.75;;;6.49;76.18
6150;BME280;3106;42.670;23.318;2023-02-13T11:39:57;96093.56;;;6.65;74.73
6150;BME280;3106;42.670;23.318;2023-02-13T11:42:29;96044.78;;;6.51;73.55
6150;BME280;3106;42.670;23.318;2023-02-13T11:44:59;96078.91;;;6.73;73.17
6150;BME280;3106;42.670;23.318;2023-02-13T11:47:36;96082.56;;;7.10;72.08
6150;BME280;3106;42.670;23.318;2023-02-13T11:50:05;96072.56;;;7.31;71.03
6150;BME280;3106;42.670;23.318;2023-02-13T11:52:33;96067.97;;;7.36;69.56
6150;BME280;3106;42.670;23.318;2023-02-13T11:55:04;96064.78;;;7.34;68.49
6150;BME280;3106;42.670;23.318;2023-02-13T11:57:35;96053.25;;;7.43;66.75
6150;BME280;3106;42.670;23.318;2023-02-13T12:00:27;96052.13;;;7.73;64.73
6150;BME280;3106;42.670;23.318;2023-02-13T12:02:59;96063.59;;;7.50;64.16
6150;BME280;3106;42.670;23.318;2023-02-13T12:05:27;96041.53;;;7.21;67.12
6150;BME280;3106;42.670;23.318;2023-02-13T12:07:58;96040.41;;;7.27;67.00
6150;BME280;3106;42.670;23.318;2023-02-13T12:10:31;96033.31;;;7.41;65.85
6150;BME280;3106;42.670;23.318;2023-02-13T12:13:05;96037.22;;;7.72;64.78
6150;BME280;3106;42.670;23.318;2023-02-13T12:15:38;96034.88;;;7.70;60.78
6150;BME280;3106;42.670;23.318;2023-02-13T12:18:10;96033.34;;;7.83;61.20
6150;BME280;3106;42.670;23.318;2023-02-13T12:20:55;96036.84;;;8.02;61.27
6150;BME280;3106;42.670;23.318;2023-02-13T12:23:32;96022.81;;;8.15;59.90
6150;BME280;3106;42.670;23.318;2023-02-13T12:28:54;96029.72;;;8.21;58.70
6150;BME280;3106;42.670;23.318;2023-02-13T12:31:37;96026.47;;;8.42;57.98
6150;BME280;3106;42.670;23.318;2023-02-13T12:34:43;96027.75;;;8.26;57.63
6150;BME280;3106;42.670;23.318;2023-02-13T12:37:21;95972.38;;;8.23;55.73
6150;BME280;3106;42.670;23.318;2023-02-13T12:40:01;96019.06;;;8.21;55.49
6150;BME280;3106;42.670;23.318;2023-02-13T12:42:39;96014.28;;;7.76;56.91
6150;BME280;3106;42.670;23.318;2023-02-13T12:45:25;96020.59;;;7.85;56.62
6150;BME280;3106;42.670;23.318;2023-02-13T12:48:15;96001.81;;;7.95;55.87
6150;BME280;3106;42.670;23.318;2023-02-13T12:50:56;95997.91;;;8.06;54.97
6150;BME280;3106;42.670;23.318;2023-02-13T12:53:38;96002.41;;;8.10;55.42
6150;BME280;3106;42.670;23.318;2023-02-13T12:56:22;95995.66;;;7.76;56.83
6150;BME280;3106;42.670;23.318;2023-02-13T12:59:00;95986.19;;;7.88;57.08
6150;BME280;3106;42.670;23.318;2023-02-13T13:01:49;95990.34;;;8.13;56.11
6150;BME280;3106;42.670;23.318;2023-02-13T13:04:25;95988.13;;;8.38;54.78
6150;BME280;3106;42.670;23.318;2023-02-13T13:12:43;95984.34;;;8.26;54.67
6150;BME280;3106;42.670;23.318;2023-02-13T13:15:17;95970.22;;;8.44;54.19
6150;BME280;3106;42.670;23.318;2023-02-13T13:18:00;95979.56;;;8.60;53.05
6150;BME280;3106;42.670;23.318;2023-02-13T13:20:51;95972.28;;;8.47;53.58
6150;BME280;3106;42.670;23.318;2023-02-13T13:23:29;95969.72;;;8.42;54.01
6150;BME280;3106;42.670;23.318;2023-02-13T13:26:06;95971.13;;;8.21;54.68
6150;BME280;3106;42.670;23.318;2023-02-13T13:28:39;95947.91;;;8.03;54.75
6150;BME280;3106;42.670;23.318;2023-02-13T13:31:07;95929.81;;;7.63;55.73
6150;BME280;3106;42.670;23.318;2023-02-13T13:33:39;95966.09;;;7.77;56.43
6150;BME280;3106;42.670;23.318;2023-02-13T13:36:11;95953.66;;;7.91;56.49
6150;BME280;3106;42.670;23.318;2023-02-13T13:38:46;95947.97;;;7.98;55.75
6150;BME280;3106;42.670;23.318;2023-02-13T13:41:22;95967.13;;;8.00;55.27
6150;BME280;3106;42.670;23.318;2023-02-13T13:46:58;95959.78;;;7.92;56.14
6150;BME280;3106;42.670;23.318;2023-02-13T13:49:37;95950.47;;;8.08;56.22
6150;BME280;3106;42.670;23.318;2023-02-13T13:52:20;95959.84;;;8.05;55.91
6150;BME280;3106;42.670;23.318;2023-02-13T13:54:47;95919.34;;;7.71;56.51
6150;BME280;3106;42.670;23.318;2023-02-13T13:57:16;95953.06;;;7.94;55.62
6150;BME280;3106;42.670;23.318;2023-02-13T14:00:23;95956.47;;;8.00;55.43
6150;BME280;3106;42.670;23.318;2023-02-13T14:03:21;95952.69;;;7.64;56.67
6150;BME280;3106;42.670;23.318;2023-02-13T14:06:02;95952.44;;;7.42;58.10
6150;BME280;3106;42.670;23.318;2023-02-13T14:09:06;95958.06;;;7.41;58.24
6150;BME280;3106;42.670;23.318;2023-02-13T14:11:36;95953.38;;;7.33;58.80
6150;BME280;3106;42.670;23.318;2023-02-13T14:19:39;95948.94;;;7.23;59.55
6150;BME280;3106;42.670;23.318;2023-02-13T14:22:33;95936.91;;;7.31;59.93
6150;BME280;3106;42.670;23.318;2023-02-13T14:25:04;95933.19;;;7.27;59.93
6150;BME280;3106;42.670;23.318;2023-02-13T14:27:33;95932.13;;;7.28;60.39
6150;BME280;3106;42.670;23.318;2023-02-13T14:30:02;95932.97;;;7.46;59.72
6150;BME280;3106;42.670;23.318;2023-02-13T14:32:31;95922.66;;;7.40;60.08
6150;BME280;3106;42.670;23.318;2023-02-13T14:35:05;95928.75;;;7.22;60.87
6150;BME280;3106;42.670;23.318;2023-02-13T14:37:50;95925.50;;;7.25;59.55
6150;BME280;3106;42.670;23.318;2023-02-13T14:40:43;95921.28;;;7.24;61.24
6150;BME280;3106;42.670;23.318;2023-02-13T14:43:32;95922.97;;;7.15;60.67
6150;BME280;3106;42.670;23.318;2023-02-13T14:46:21;95922.47;;;7.13;60.96
6150;BME280;3106;42.670;23.318;2023-02-13T14:48:54;95927.94;;;6.98;61.08
6150;BME280;3106;42.670;23.318;2023-02-13T14:51:28;95925.47;;;6.83;61.66
6150;BME280;3106;42.670;23.318;2023-02-13T14:54:06;95900.41;;;6.66;61.87
6150;BME280;3106;42.670;23.318;2023-02-13T14:56:37;95912.41;;;6.58;62.53
6150;BME280;3106;42.670;23.318;2023-02-13T14:59:11;95917.78;;;6.53;63.63
6150;BME280;3106;42.670;23.318;2023-02-13T15:01:45;95914.09;;;6.49;64.06
6150;BME280;3106;42.670;23.318;2023-02-13T15:04:21;95920.53;;;6.43;64.07
6150;BME280;3106;42.670;23.318;2023-02-13T15:06:52;95921.31;;;6.44;64.85
6150;BME280;3106;42.670;23.318;2023-02-13T15:09:27;95918.09;;;6.47;64.26
6150;BME280;3106;42.670;23.318;2023-02-13T15:11:57;95926.94;;;6.37;64.27
6150;BME280;3106;42.670;23.318;2023-02-13T15:14:30;95909.50;;;6.26;64.83
6150;BME280;3106;42.670;23.318;2023-02-13T15:17:05;95916.97;;;6.24;64.41
6150;BME280;3106;42.670;23.318;2023-02-13T15:19:35;95926.09;;;6.13;65.54
6150;BME280;3106;42.670;23.318;2023-02-13T15:22:06;95924.03;;;6.05;65.48
6150;BME280;3106;42.670;23.318;2023-02-13T15:24:45;95916.63;;;5.97;65.62
6150;BME280;3106;42.670;23.318;2023-02-13T15:27:18;95918.03;;;5.90;65.98
6150;BME280;3106;42.670;23.318;2023-02-13T15:29:56;95919.41;;;5.83;66.50
6150;BME280;3106;42.670;23.318;2023-02-13T15:32:28;95919.41;;;5.78;67.71
6150;BME280;3106;42.670;23.318;2023-02-13T15:34:55;95922.91;;;5.68;67.55
6150;BME280;3106;42.670;23.318;2023-02-13T15:37:23;95920.56;;;5.67;68.33
6150;BME280;3106;42.670;23.318;2023-02-13T15:39:52;95926.94;;;5.61;68.18
6150;BME280;3106;42.670;23.318;2023-02-13T15:42:19;95928.03;;;5.55;68.96
6150;BME280;3106;42.670;23.318;2023-02-13T15:44:48;95933.09;;;5.51;68.75